| time (UTC) | temp C | wind direction | speed KPH | gust KPH | rain 1hr cm | rain 24hr cm | rain mn cm | humidity % | barometer mb |
| 20260510202004 | 28 | 68 | 1.6 | 12.9 | 0.00 | 0.00 | 0.00 | 70 | 1015.7 |
| 20260510201503 | 28 | 76 | 8.0 | 16.1 | 0.00 | 0.00 | 0.00 | 67 | 1015.6 |
| 20260510200504 | 28 | 69 | 9.7 | 19.3 | 0.00 | 0.00 | 0.00 | 67 | 1015.6 |
| 20260510200004 | 28 | 75 | 9.7 | 19.3 | 0.00 | 0.00 | 0.00 | 66 | 1015.6 |
| 20260510195503 | 28 | 87 | 9.7 | 19.3 | 0.00 | 0.00 | 0.00 | 65 | 1015.6 |
| 20260510195003 | 28 | 82 | 6.4 | 19.3 | 0.00 | 0.00 | 0.00 | 66 | 1015.5 |
| 20260510194504 | 28 | 88 | 6.4 | 19.3 | 0.00 | 0.00 | 0.00 | 66 | 1015.4 |
| 20260510194004 | 28 | 98 | 9.7 | 22.5 | 0.00 | 0.00 | 0.00 | 66 | 1015.3 |
| 20260510193504 | 28 | 76 | 11.3 | 20.9 | 0.00 | 0.00 | 0.00 | 64 | 1015.4 |
| 20260510193004 | 27 | 90 | 8.0 | 24.1 | 0.00 | 0.00 | 0.00 | 66 | 1015.4 |
| 20260510192504 | 27 | 95 | 11.3 | 16.1 | 0.00 | 0.00 | 0.00 | 66 | 1015.6 |
| 20260510191504 | 27 | 69 | 8.0 | 19.3 | 0.00 | 0.00 | 0.00 | 70 | 1015.8 |
| 20260510191004 | 27 | 80 | 9.7 | 16.1 | 0.00 | 0.00 | 0.00 | 68 | 1015.9 |
| 20260510190504 | 27 | 76 | 11.3 | 19.3 | 0.00 | 0.00 | 0.00 | 67 | 1015.9 |
| 20260510190004 | 27 | 82 | 9.7 | 20.9 | 0.00 | 0.00 | 0.00 | 69 | 1015.9 |
| 20260510185504 | 27 | 58 | 11.3 | 19.3 | 0.00 | 0.00 | 0.00 | 69 | 1016.0 |
| 20260510185004 | 27 | 63 | 6.4 | 16.1 | 0.00 | 0.00 | 0.00 | 70 | 1016.0 |
| 20260510184504 | 27 | 60 | 11.3 | 20.9 | 0.00 | 0.00 | 0.00 | 68 | 1016.0 |
| 20260510183504 | 27 | 78 | 8.0 | 16.1 | 0.00 | 0.00 | 0.00 | 71 | 1016.1 |
| 20260510183004 | 27 | 63 | 6.4 | 14.5 | 0.00 | 0.00 | 0.00 | 74 | 1016.1 |
| 20260510182504 | 27 | 94 | 9.7 | 16.1 | 0.00 | 0.00 | 0.00 | 72 | 1016.1 |
| 20260510181004 | 26 | 100 | 8.0 | 16.1 | 0.00 | 0.00 | 0.00 | 74 | 1016.5 |
| 20260510180503 | 26 | 93 | 8.0 | 16.1 | 0.00 | 0.00 | 0.00 | 73 | 1016.6 |
| 20260510180004 | 26 | 79 | 8.0 | 19.3 | 0.00 | 0.00 | 0.00 | 75 | 1016.6 |
| 20260510175504 | 26 | 102 | 8.0 | 19.3 | 0.00 | 0.00 | 0.00 | 77 | 1016.7 |
| 20260510175004 | 26 | 84 | 6.4 | 19.3 | 0.00 | 0.00 | 0.00 | 76 | 1016.7 |
| 20260510174505 | 26 | 78 | 11.3 | 16.1 | 0.00 | 0.00 | 0.00 | 71 | 1016.7 |
| 20260510174003 | 26 | 38 | 4.8 | 14.5 | 0.00 | 0.00 | 0.00 | 74 | 1016.7 |
| 20260510171503 | 20 | 123 | 3.2 | 14.5 | 0.00 | 0.00 | 0.00 | 95 | 1013.7 |
| 20260510171004 | 20 | 123 | 3.2 | 14.5 | 0.00 | 0.00 | 0.00 | 95 | 1013.7 |
| 20260510170504 | 20 | 123 | 3.2 | 14.5 | 0.00 | 0.00 | 0.00 | 95 | 1013.7 |
| 20260510165504 | 20 | 123 | 3.2 | 14.5 | 0.00 | 0.00 | 0.00 | 95 | 1013.7 |
| 20260510165004 | 20 | 123 | 3.2 | 14.5 | 0.00 | 0.00 | 0.00 | 95 | 1013.7 |
| 20260510164504 | 20 | 123 | 3.2 | 14.5 | 0.00 | 0.00 | 0.00 | 95 | 1013.7 |
| 20260510164004 | 20 | 123 | 3.2 | 14.5 | 0.00 | 0.03 | 0.00 | 95 | 1013.7 |
| 20260510163504 | 20 | 123 | 3.2 | 14.5 | 0.00 | 0.05 | 0.00 | 95 | 1013.7 |
| 20260510163003 | 20 | 123 | 3.2 | 14.5 | 0.00 | 0.08 | 0.00 | 95 | 1013.7 |
| 20260510162503 | 20 | 123 | 3.2 | 14.5 | 0.00 | 0.08 | 0.00 | 95 | 1013.7 |
| 20260510161503 | 20 | 123 | 3.2 | 14.5 | 0.00 | 0.18 | 0.00 | 95 | 1013.7 |
| 20260510161004 | 20 | 123 | 3.2 | 14.5 | 0.00 | 0.18 | 0.00 | 95 | 1013.7 |
| 20260510160503 | 20 | 123 | 3.2 | 14.5 | 0.00 | 0.18 | 0.00 | 95 | 1013.7 |
| 20260510160003 | 20 | 123 | 3.2 | 14.5 | 0.00 | 0.18 | 0.00 | 95 | 1013.7 |
| 20260510155504 | 20 | 123 | 3.2 | 14.5 | 0.00 | 0.18 | 0.00 | 95 | 1013.7 |
| 20260510155003 | 20 | 123 | 3.2 | 14.5 | 0.00 | 0.18 | 0.00 | 95 | 1013.7 |
| 20260510154504 | 20 | 123 | 3.2 | 14.5 | 0.00 | 0.18 | 0.00 | 95 | 1013.7 |
| 20260510153504 | 20 | 123 | 3.2 | 14.5 | 0.00 | 0.18 | 0.00 | 95 | 1013.7 |
| 20260510153004 | 20 | 123 | 3.2 | 14.5 | 0.00 | 0.18 | 0.00 | 95 | 1013.7 |
| 20260510152503 | 20 | 123 | 3.2 | 14.5 | 0.00 | 0.18 | 0.00 | 95 | 1013.7 |
| 20260510152004 | 20 | 123 | 3.2 | 14.5 | 0.00 | 0.18 | 0.00 | 95 | 1013.7 |
| 20260510151503 | 20 | 123 | 3.2 | 14.5 | 0.00 | 0.18 | 0.00 | 95 | 1013.7 |
| 20260510151004 | 20 | 123 | 3.2 | 14.5 | 0.00 | 0.18 | 0.00 | 95 | 1013.7 |
| 20260510150504 | 20 | 123 | 3.2 | 14.5 | 0.00 | 0.18 | 0.00 | 95 | 1013.7 |
| 20260510143504 | 20 | 123 | 3.2 | 14.5 | 0.00 | 0.18 | 0.00 | 95 | 1013.7 |
| 20260510143004 | 20 | 123 | 3.2 | 14.5 | 0.00 | 0.18 | 0.00 | 95 | 1013.7 |
| 20260510142504 | 20 | 123 | 3.2 | 14.5 | 0.00 | 0.18 | 0.00 | 95 | 1013.7 |
| 20260510141503 | 20 | 123 | 3.2 | 14.5 | 0.00 | 0.18 | 0.00 | 95 | 1013.7 |
| 20260510141004 | 20 | 123 | 3.2 | 14.5 | 0.00 | 0.18 | 0.00 | 95 | 1013.7 |
| 20260510140503 | 20 | 123 | 3.2 | 14.5 | 0.00 | 0.18 | 0.00 | 95 | 1013.7 |
| 20260510140004 | 20 | 123 | 3.2 | 14.5 | 0.00 | 0.18 | 0.00 | 95 | 1013.7 |
| 20260510135504 | 20 | 123 | 3.2 | 14.5 | 0.00 | 0.18 | 0.00 | 95 | 1013.7 |
| 20260510135004 | 20 | 123 | 3.2 | 14.5 | 0.00 | 0.18 | 0.00 | 95 | 1013.7 |
| 20260510134503 | 20 | 123 | 3.2 | 14.5 | 0.00 | 0.18 | 0.00 | 95 | 1013.7 |
| 20260510134004 | 20 | 123 | 3.2 | 14.5 | 0.00 | 0.18 | 0.00 | 95 | 1013.7 |
| 20260510133004 | 20 | 123 | 3.2 | 14.5 | 0.00 | 0.18 | 0.00 | 95 | 1013.7 |
| 20260510132503 | 20 | 123 | 3.2 | 14.5 | 0.00 | 0.18 | 0.00 | 95 | 1013.7 |
| 20260510132004 | 20 | 123 | 3.2 | 14.5 | 0.00 | 0.18 | 0.00 | 95 | 1013.7 |
| 20260510131004 | 20 | 123 | 3.2 | 14.5 | 0.00 | 0.18 | 0.00 | 95 | 1013.7 |
| 20260510130504 | 20 | 123 | 3.2 | 14.5 | 0.00 | 0.18 | 0.00 | 95 | 1013.7 |
| 20260510130003 | 20 | 123 | 3.2 | 14.5 | 0.00 | 0.18 | 0.00 | 95 | 1013.7 |
| 20260510125505 | 20 | 123 | 3.2 | 14.5 | 0.00 | 0.18 | 0.00 | 95 | 1013.7 |
| 20260510125004 | 20 | 123 | 3.2 | 14.5 | 0.00 | 0.18 | 0.00 | 95 | 1013.7 |
| 20260510124503 | 20 | 123 | 3.2 | 14.5 | 0.00 | 0.18 | 0.00 | 95 | 1013.7 |
| 20260510124003 | 20 | 123 | 3.2 | 14.5 | 0.00 | 0.18 | 0.00 | 95 | 1013.7 |
| 20260510123504 | 20 | 123 | 3.2 | 14.5 | 0.00 | 0.18 | 0.00 | 95 | 1013.7 |
| 20260510123003 | 20 | 123 | 3.2 | 14.5 | 0.00 | 0.18 | 0.00 | 95 | 1013.7 |
| 20260510122504 | 20 | 123 | 3.2 | 14.5 | 0.00 | 0.18 | 0.00 | 95 | 1013.7 |
| 20260510122003 | 20 | 123 | 3.2 | 14.5 | 0.00 | 0.18 | 0.00 | 95 | 1013.7 |
| 20260510121504 | 20 | 123 | 3.2 | 14.5 | 0.00 | 0.18 | 0.00 | 95 | 1013.7 |
| 20260510121003 | 20 | 123 | 3.2 | 14.5 | 0.00 | 0.18 | 0.00 | 95 | 1013.7 |
| 20260510120504 | 20 | 123 | 3.2 | 14.5 | 0.00 | 0.18 | 0.00 | 95 | 1013.7 |
| 20260510120004 | 20 | 123 | 3.2 | 14.5 | 0.00 | 0.18 | 0.00 | 95 | 1013.7 |
| 20260510115504 | 20 | 123 | 3.2 | 14.5 | 0.00 | 0.18 | 0.00 | 95 | 1013.7 |
| 20260510115003 | 20 | 123 | 3.2 | 14.5 | 0.00 | 0.18 | 0.00 | 95 | 1013.7 |
| 20260510114004 | 20 | 123 | 3.2 | 14.5 | 0.00 | 0.18 | 0.00 | 95 | 1013.7 |
| 20260510113504 | 20 | 123 | 3.2 | 14.5 | 0.00 | 0.18 | 0.00 | 95 | 1013.7 |
| 20260510113004 | 20 | 123 | 3.2 | 14.5 | 0.00 | 0.18 | 0.00 | 95 | 1013.7 |
| 20260510112503 | 20 | 123 | 3.2 | 14.5 | 0.00 | 0.18 | 0.00 | 95 | 1013.7 |
| 20260510112004 | 20 | 123 | 3.2 | 14.5 | 0.00 | 0.18 | 0.00 | 95 | 1013.7 |
| 20260510111503 | 20 | 123 | 3.2 | 14.5 | 0.00 | 0.18 | 0.00 | 95 | 1013.7 |
| 20260510111003 | 20 | 123 | 3.2 | 14.5 | 0.00 | 0.18 | 0.00 | 95 | 1013.7 |
| 20260510110503 | 20 | 123 | 3.2 | 14.5 | 0.00 | 0.18 | 0.00 | 95 | 1013.7 |
| 20260510110004 | 20 | 123 | 3.2 | 14.5 | 0.00 | 0.18 | 0.00 | 95 | 1013.7 |
| 20260510105504 | 20 | 123 | 3.2 | 14.5 | 0.00 | 0.18 | 0.00 | 95 | 1013.7 |
| 20260510105004 | 20 | 123 | 3.2 | 14.5 | 0.00 | 0.18 | 0.00 | 95 | 1013.7 |
| 20260510104504 | 20 | 123 | 3.2 | 14.5 | 0.00 | 0.18 | 0.00 | 95 | 1013.7 |
| 20260510104004 | 20 | 123 | 3.2 | 14.5 | 0.00 | 0.18 | 0.00 | 95 | 1013.7 |
| 20260510103503 | 20 | 123 | 3.2 | 14.5 | 0.00 | 0.18 | 0.00 | 95 | 1013.7 |
| 20260510103004 | 20 | 123 | 3.2 | 14.5 | 0.00 | 0.18 | 0.00 | 95 | 1013.7 |
| 20260510102503 | 20 | 123 | 3.2 | 14.5 | 0.00 | 0.18 | 0.00 | 95 | 1013.7 |
| 20260510101504 | 20 | 123 | 3.2 | 14.5 | 0.00 | 0.18 | 0.00 | 95 | 1013.7 |
| 20260510101003 | 20 | 123 | 3.2 | 14.5 | 0.00 | 0.18 | 0.00 | 95 | 1013.7 |
| 20260510100503 | 20 | 123 | 3.2 | 14.5 | 0.00 | 0.18 | 0.00 | 95 | 1013.7 |
| 20260510100004 | 20 | 123 | 3.2 | 14.5 | 0.00 | 0.18 | 0.00 | 95 | 1013.7 |
| 20260510095504 | 20 | 123 | 3.2 | 14.5 | 0.00 | 0.18 | 0.00 | 95 | 1013.7 |
| 20260510095004 | 20 | 123 | 3.2 | 14.5 | 0.00 | 0.18 | 0.00 | 95 | 1013.7 |
| 20260510094504 | 20 | 123 | 3.2 | 14.5 | 0.00 | 0.18 | 0.00 | 95 | 1013.7 |
| 20260510094003 | 20 | 123 | 3.2 | 14.5 | 0.00 | 0.18 | 0.00 | 95 | 1013.7 |
| 20260510093004 | 20 | 123 | 3.2 | 14.5 | 0.00 | 0.18 | 0.00 | 95 | 1013.7 |
| 20260510092504 | 20 | 123 | 3.2 | 14.5 | 0.00 | 0.18 | 0.00 | 95 | 1013.7 |
| 20260510092003 | 20 | 123 | 3.2 | 14.5 | 0.00 | 0.18 | 0.00 | 95 | 1013.7 |
| 20260510091504 | 20 | 123 | 3.2 | 14.5 | 0.00 | 0.18 | 0.00 | 95 | 1013.7 |
| 20260510091004 | 20 | 123 | 3.2 | 14.5 | 0.00 | 0.18 | 0.00 | 95 | 1013.7 |
| 20260510090503 | 20 | 123 | 3.2 | 14.5 | 0.00 | 0.18 | 0.00 | 95 | 1013.7 |
| 20260510085503 | 20 | 123 | 3.2 | 14.5 | 0.00 | 0.18 | 0.00 | 95 | 1013.7 |
| 20260510085004 | 20 | 123 | 3.2 | 14.5 | 0.00 | 0.18 | 0.00 | 95 | 1013.7 |
| 20260510084004 | 20 | 123 | 3.2 | 14.5 | 0.00 | 0.18 | 0.00 | 95 | 1013.7 |
| 20260510083504 | 20 | 123 | 3.2 | 14.5 | 0.00 | 0.18 | 0.00 | 95 | 1013.7 |
| 20260510083003 | 20 | 123 | 3.2 | 14.5 | 0.00 | 0.18 | 0.00 | 95 | 1013.7 |
| 20260510082503 | 20 | 123 | 3.2 | 14.5 | 0.00 | 0.18 | 0.00 | 95 | 1013.7 |
| 20260510082003 | 20 | 123 | 3.2 | 14.5 | 0.00 | 0.18 | 0.00 | 95 | 1013.7 |
| 20260510081504 | 20 | 123 | 3.2 | 14.5 | 0.00 | 0.18 | 0.00 | 95 | 1013.7 |
| 20260510080503 | 20 | 123 | 3.2 | 14.5 | 0.00 | 0.18 | 0.00 | 95 | 1013.7 |
| 20260510080003 | 20 | 123 | 3.2 | 14.5 | 0.00 | 0.18 | 0.00 | 95 | 1013.7 |
| 20260510075504 | 20 | 123 | 3.2 | 14.5 | 0.00 | 0.18 | 0.00 | 95 | 1013.7 |
| 20260510075003 | 20 | 123 | 3.2 | 14.5 | 0.00 | 0.18 | 0.00 | 95 | 1013.7 |
| 20260510074504 | 20 | 123 | 3.2 | 14.5 | 0.00 | 0.18 | 0.00 | 95 | 1013.7 |
| 20260510074004 | 20 | 123 | 3.2 | 14.5 | 0.00 | 0.18 | 0.00 | 95 | 1013.7 |
| 20260510073504 | 20 | 123 | 3.2 | 14.5 | 0.00 | 0.18 | 0.00 | 95 | 1013.7 |
| 20260510073004 | 20 | 123 | 3.2 | 14.5 | 0.00 | 0.18 | 0.00 | 95 | 1013.7 |
| 20260510072504 | 20 | 123 | 3.2 | 14.5 | 0.00 | 0.18 | 0.00 | 95 | 1013.7 |
| 20260510072004 | 20 | 123 | 3.2 | 14.5 | 0.00 | 0.18 | 0.00 | 95 | 1013.7 |
| 20260510071004 | 20 | 123 | 3.2 | 14.5 | 0.00 | 0.18 | 0.00 | 95 | 1013.7 |
| 20260510070503 | 20 | 123 | 3.2 | 14.5 | 0.00 | 0.18 | 0.00 | 95 | 1013.7 |
| 20260510070004 | 20 | 123 | 3.2 | 14.5 | 0.00 | 0.18 | 0.00 | 95 | 1013.7 |
| 20260510065004 | 20 | 123 | 3.2 | 14.5 | 0.00 | 0.18 | 0.00 | 95 | 1013.7 |
| 20260510064504 | 20 | 123 | 3.2 | 14.5 | 0.00 | 0.18 | 0.00 | 95 | 1013.7 |
| 20260510064004 | 20 | 123 | 3.2 | 14.5 | 0.00 | 0.18 | 0.00 | 95 | 1013.7 |
| 20260510063504 | 20 | 123 | 3.2 | 14.5 | 0.00 | 0.18 | 0.00 | 95 | 1013.7 |
| 20260510063004 | 20 | 123 | 3.2 | 14.5 | 0.00 | 0.18 | 0.00 | 95 | 1013.7 |
| 20260510062004 | 20 | 123 | 3.2 | 14.5 | 0.00 | 0.18 | 0.00 | 95 | 1013.7 |
| 20260510061504 | 20 | 123 | 3.2 | 14.5 | 0.00 | 0.18 | 0.00 | 95 | 1013.7 |
| 20260510061004 | 20 | 123 | 3.2 | 14.5 | 0.00 | 0.18 | 0.00 | 95 | 1013.7 |
| 20260510060503 | 20 | 123 | 3.2 | 14.5 | 0.00 | 0.18 | 0.00 | 95 | 1013.7 |
| 20260510060003 | 20 | 123 | 3.2 | 14.5 | 0.00 | 0.18 | 0.00 | 95 | 1013.7 |
| 20260510055504 | 20 | 123 | 3.2 | 14.5 | 0.00 | 0.18 | 0.00 | 95 | 1013.7 |
| 20260510055004 | 20 | 123 | 3.2 | 14.5 | 0.00 | 0.18 | 0.00 | 95 | 1013.7 |
| 20260510054504 | 20 | 123 | 3.2 | 14.5 | 0.00 | 0.18 | 0.00 | 95 | 1013.7 |
| 20260510054004 | 20 | 123 | 3.2 | 14.5 | 0.00 | 0.18 | 0.00 | 95 | 1013.7 |
| 20260510053504 | 20 | 123 | 3.2 | 14.5 | 0.00 | 0.18 | 0.00 | 95 | 1013.7 |
| 20260510053004 | 20 | 123 | 3.2 | 14.5 | 0.00 | 0.18 | 0.00 | 95 | 1013.7 |
| 20260510052004 | 20 | 123 | 3.2 | 14.5 | 0.00 | 0.18 | 0.00 | 95 | 1013.7 |
| 20260510051504 | 20 | 123 | 3.2 | 14.5 | 0.00 | 0.18 | 0.00 | 95 | 1013.7 |
| 20260510050504 | 20 | 123 | 3.2 | 14.5 | 0.00 | 0.18 | 0.00 | 95 | 1013.7 |
| 20260510050005 | 20 | 123 | 3.2 | 14.5 | 0.00 | 0.18 | 0.00 | 95 | 1013.7 |
| 20260510045003 | 20 | 123 | 3.2 | 14.5 | 0.00 | 0.18 | 0.18 | 95 | 1013.7 |
| 20260510044504 | 20 | 123 | 3.2 | 14.5 | 0.00 | 0.18 | 0.18 | 95 | 1013.7 |
| 20260510044004 | 20 | 123 | 3.2 | 14.5 | 0.00 | 0.18 | 0.18 | 95 | 1013.7 |
| 20260510043503 | 20 | 123 | 3.2 | 14.5 | 0.00 | 0.18 | 0.18 | 95 | 1013.7 |
| 20260510043003 | 20 | 123 | 3.2 | 14.5 | 0.00 | 0.18 | 0.18 | 95 | 1013.7 |
| 20260510042503 | 20 | 123 | 3.2 | 14.5 | 0.00 | 0.18 | 0.18 | 95 | 1013.7 |
| 20260510042004 | 20 | 123 | 3.2 | 14.5 | 0.00 | 0.18 | 0.18 | 95 | 1013.7 |
| 20260510041004 | 20 | 123 | 3.2 | 14.5 | 0.00 | 0.18 | 0.18 | 95 | 1013.7 |
| 20260510040503 | 20 | 123 | 3.2 | 14.5 | 0.00 | 0.18 | 0.18 | 95 | 1013.7 |
| 20260510040003 | 20 | 123 | 3.2 | 14.5 | 0.00 | 0.18 | 0.18 | 95 | 1013.7 |
| 20260510035004 | 20 | 123 | 3.2 | 14.5 | 0.00 | 0.18 | 0.18 | 95 | 1013.7 |
| 20260510034504 | 20 | 123 | 3.2 | 14.5 | 0.00 | 0.18 | 0.18 | 95 | 1013.7 |
| 20260510034005 | 20 | 123 | 3.2 | 14.5 | 0.00 | 0.18 | 0.18 | 95 | 1013.7 |
| 20260510033504 | 20 | 123 | 3.2 | 14.5 | 0.00 | 0.18 | 0.18 | 95 | 1013.7 |
| 20260510033004 | 20 | 123 | 3.2 | 14.5 | 0.00 | 0.18 | 0.18 | 95 | 1013.7 |
| 20260510032503 | 20 | 123 | 3.2 | 14.5 | 0.00 | 0.18 | 0.18 | 95 | 1013.7 |
| 20260510032004 | 20 | 123 | 3.2 | 14.5 | 0.00 | 0.18 | 0.18 | 95 | 1013.7 |
| 20260510031504 | 20 | 123 | 3.2 | 14.5 | 0.00 | 0.18 | 0.18 | 95 | 1013.7 |
| 20260510031004 | 20 | 123 | 3.2 | 14.5 | 0.00 | 0.18 | 0.18 | 95 | 1013.7 |
| 20260510030503 | 20 | 123 | 3.2 | 14.5 | 0.00 | 0.18 | 0.18 | 95 | 1013.7 |
| 20260510025504 | 20 | 123 | 3.2 | 14.5 | 0.00 | 0.18 | 0.18 | 95 | 1013.7 |
| 20260510025004 | 20 | 123 | 3.2 | 14.5 | 0.00 | 0.18 | 0.18 | 95 | 1013.7 |
| 20260510024504 | 20 | 123 | 3.2 | 14.5 | 0.00 | 0.18 | 0.18 | 95 | 1013.7 |
| 20260510024004 | 20 | 123 | 3.2 | 14.5 | 0.00 | 0.18 | 0.18 | 95 | 1013.7 |
| 20260510023504 | 20 | 123 | 3.2 | 14.5 | 0.00 | 0.18 | 0.18 | 95 | 1013.7 |
| 20260510023004 | 20 | 123 | 3.2 | 14.5 | 0.00 | 0.18 | 0.18 | 95 | 1013.7 |
| 20260510022504 | 20 | 123 | 3.2 | 14.5 | 0.00 | 0.18 | 0.18 | 95 | 1013.7 |
| 20260510022003 | 20 | 123 | 3.2 | 14.5 | 0.00 | 0.18 | 0.18 | 95 | 1013.7 |
| 20260510021504 | 20 | 123 | 3.2 | 14.5 | 0.00 | 0.18 | 0.18 | 95 | 1013.7 |
| 20260510020503 | 20 | 123 | 3.2 | 14.5 | 0.00 | 0.18 | 0.18 | 95 | 1013.7 |
| 20260510015504 | 20 | 123 | 3.2 | 14.5 | 0.00 | 0.18 | 0.18 | 95 | 1013.7 |
| 20260510015004 | 20 | 123 | 3.2 | 14.5 | 0.00 | 0.18 | 0.18 | 95 | 1013.7 |
| 20260510014504 | 20 | 123 | 3.2 | 14.5 | 0.00 | 0.18 | 0.18 | 95 | 1013.7 |
| 20260510014004 | 20 | 123 | 3.2 | 14.5 | 0.00 | 0.18 | 0.18 | 95 | 1013.7 |
| 20260510013004 | 20 | 123 | 3.2 | 14.5 | 0.00 | 0.18 | 0.18 | 95 | 1013.7 |
| 20260510012503 | 20 | 123 | 3.2 | 14.5 | 0.00 | 0.18 | 0.18 | 95 | 1013.7 |
| 20260510012004 | 20 | 123 | 3.2 | 14.5 | 0.00 | 0.18 | 0.18 | 95 | 1013.7 |
| 20260510011503 | 20 | 123 | 3.2 | 14.5 | 0.00 | 0.20 | 0.18 | 95 | 1013.7 |
| 20260510011004 | 20 | 123 | 3.2 | 14.5 | 0.00 | 0.20 | 0.18 | 95 | 1013.7 |
| 20260510010504 | 20 | 123 | 3.2 | 14.5 | 0.00 | 0.20 | 0.18 | 95 | 1013.7 |
| 20260510010004 | 20 | 123 | 3.2 | 14.5 | 0.00 | 0.20 | 0.18 | 95 | 1013.7 |
| 20260510005503 | 20 | 123 | 3.2 | 14.5 | 0.00 | 0.20 | 0.18 | 95 | 1013.7 |
| 20260510004503 | 20 | 123 | 3.2 | 14.5 | 0.00 | 0.20 | 0.18 | 95 | 1013.7 |
| 20260510004004 | 20 | 123 | 3.2 | 14.5 | 0.00 | 0.20 | 0.18 | 95 | 1013.7 |
| 20260510003504 | 20 | 123 | 3.2 | 14.5 | 0.00 | 0.20 | 0.18 | 95 | 1013.7 |
| 20260510003004 | 20 | 123 | 3.2 | 14.5 | 0.00 | 0.20 | 0.18 | 95 | 1013.7 |
| 20260510002504 | 20 | 123 | 3.2 | 14.5 | 0.00 | 0.20 | 0.18 | 95 | 1013.7 |
| 20260510002003 | 20 | 123 | 3.2 | 14.5 | 0.00 | 0.20 | 0.18 | 95 | 1013.7 |
| 20260510001503 | 20 | 123 | 3.2 | 14.5 | 0.00 | 0.20 | 0.18 | 95 | 1013.7 |
| 20260510001003 | 20 | 123 | 3.2 | 14.5 | 0.00 | 0.20 | 0.18 | 95 | 1013.7 |
| 20260510000504 | 20 | 123 | 3.2 | 14.5 | 0.00 | 0.20 | 0.18 | 95 | 1013.7 |
| 20260510000004 | 20 | 123 | 3.2 | 14.5 | 0.00 | 0.20 | 0.18 | 95 | 1013.7 |
| 20260509235503 | 20 | 123 | 3.2 | 14.5 | 0.00 | 0.20 | 0.18 | 95 | 1013.7 |
| 20260509235004 | 20 | 123 | 3.2 | 14.5 | 0.00 | 0.20 | 0.18 | 95 | 1013.7 |
| 20260509234504 | 20 | 123 | 3.2 | 14.5 | 0.00 | 0.20 | 0.18 | 95 | 1013.7 |
| 20260509234003 | 20 | 123 | 3.2 | 14.5 | 0.00 | 0.20 | 0.18 | 95 | 1013.7 |
| 20260509233504 | 20 | 123 | 3.2 | 14.5 | 0.00 | 0.20 | 0.18 | 95 | 1013.7 |
| 20260509233004 | 20 | 123 | 3.2 | 14.5 | 0.00 | 0.20 | 0.18 | 95 | 1013.7 |
| 20260509232503 | 20 | 123 | 3.2 | 14.5 | 0.00 | 0.20 | 0.18 | 95 | 1013.7 |
| 20260509231503 | 20 | 123 | 3.2 | 14.5 | 0.00 | 0.20 | 0.18 | 95 | 1013.7 |
| 20260509231004 | 20 | 123 | 3.2 | 14.5 | 0.00 | 0.20 | 0.18 | 95 | 1013.7 |
| 20260509230504 | 20 | 123 | 3.2 | 14.5 | 0.00 | 0.20 | 0.18 | 95 | 1013.7 |
| 20260509230004 | 20 | 123 | 3.2 | 14.5 | 0.00 | 0.20 | 0.18 | 95 | 1013.7 |
| 20260509225504 | 20 | 123 | 3.2 | 14.5 | 0.00 | 0.20 | 0.18 | 95 | 1013.7 |
| 20260509224504 | 20 | 123 | 3.2 | 14.5 | 0.00 | 0.20 | 0.18 | 95 | 1013.7 |
| 20260509224004 | 20 | 123 | 3.2 | 14.5 | 0.00 | 0.20 | 0.18 | 95 | 1013.7 |
| 20260509223504 | 20 | 123 | 3.2 | 14.5 | 0.00 | 0.20 | 0.18 | 95 | 1013.7 |
| 20260509223004 | 20 | 123 | 3.2 | 14.5 | 0.00 | 0.20 | 0.18 | 95 | 1013.7 |
| 20260509222504 | 20 | 123 | 3.2 | 14.5 | 0.00 | 0.20 | 0.18 | 95 | 1013.7 |
| 20260509222004 | 20 | 123 | 3.2 | 14.5 | 0.00 | 0.20 | 0.18 | 95 | 1013.7 |
| 20260509221504 | 20 | 123 | 3.2 | 14.5 | 0.00 | 0.20 | 0.18 | 95 | 1013.7 |
| 20260509221004 | 20 | 123 | 3.2 | 14.5 | 0.00 | 0.20 | 0.18 | 95 | 1013.7 |
| 20260509220504 | 20 | 123 | 3.2 | 14.5 | 0.00 | 0.20 | 0.18 | 95 | 1013.7 |
| 20260509220004 | 20 | 123 | 3.2 | 14.5 | 0.00 | 0.20 | 0.18 | 95 | 1013.7 |
| 20260509215504 | 20 | 123 | 3.2 | 14.5 | 0.00 | 0.20 | 0.18 | 95 | 1013.7 |
| 20260509215004 | 20 | 123 | 3.2 | 14.5 | 0.00 | 0.20 | 0.18 | 95 | 1013.7 |
| 20260509214504 | 20 | 123 | 3.2 | 14.5 | 0.00 | 0.20 | 0.18 | 95 | 1013.7 |
| 20260509214004 | 20 | 123 | 3.2 | 14.5 | 0.00 | 0.20 | 0.18 | 95 | 1013.7 |
| 20260509213504 | 20 | 123 | 3.2 | 14.5 | 0.00 | 0.20 | 0.18 | 95 | 1013.7 |
| 20260509212503 | 20 | 123 | 3.2 | 14.5 | 0.00 | 0.20 | 0.18 | 95 | 1013.7 |
| 20260509212004 | 20 | 123 | 3.2 | 14.5 | 0.00 | 0.20 | 0.18 | 95 | 1013.7 |
| 20260509211504 | 20 | 123 | 3.2 | 14.5 | 0.00 | 0.20 | 0.18 | 95 | 1013.7 |
| 20260509210504 | 20 | 123 | 3.2 | 14.5 | 0.00 | 0.20 | 0.18 | 95 | 1013.7 |
| 20260509210004 | 20 | 123 | 3.2 | 14.5 | 0.00 | 0.20 | 0.18 | 95 | 1013.7 |
| 20260509205503 | 20 | 123 | 3.2 | 14.5 | 0.00 | 0.20 | 0.18 | 95 | 1013.7 |
| 20260509205003 | 20 | 123 | 3.2 | 14.5 | 0.00 | 0.20 | 0.18 | 95 | 1013.7 |
| 20260509204504 | 20 | 123 | 3.2 | 14.5 | 0.00 | 0.20 | 0.18 | 95 | 1013.7 |
| 20260509202504 | 20 | 123 | 3.2 | 14.5 | 0.00 | 0.20 | 0.18 | 95 | 1013.7 |